HOURLY OBSERVATIONS


Time
(EST)
Temperature
°F
Dew Point
°F
Humidity
%
Wind
mph
Pressure
mb
Precip.
Hour
in
Precip.
Day
in
6 Hr
Max Temp
°F
6 Hr
Min Temp
°F
22 13:00 42 22 44 SW 3 G 8 1026.8 0.00 42 24
22 12:00 39 20 47 WSW 2 G 8 1027.7 0.00
22 11:00 36 19 50 WSW 3 G 7 1028.2 0.00
22 10:00 32 17 53 SW 4 G 8 1028.8 0.00
22 09:00 28 16 60 SW 2 G 7 1029.2 0.00
22 08:00 25 15 65 WSW 2 G 4 1028.9 0.00
22 07:00 24 14 65 WSW 2 G 4 1029.0 0.00 27 24
22 06:00 24 14 66 WSW 0 G 2 1029.2 0.00
22 05:00 25 15 66 W 0 G 3 1029.2 0.00
22 04:00 26 15 64 W 1 G 5 1029.1 0.00
22 03:00 26 15 62 W 1 G 4 1029.0 0.00
22 02:00 27 16 62 WSW 2 G 5 1029.2 0.00
22 01:00 27 16 63 WSW 2 G 5 1029.6 0.00 31 27
22 00:00 27 16 63 SW 1 G 5 1030.0 0.00
21 23:00 28 16 62 W 2 G 8 1030.6 0.00
21 22:00 29 16 60 SSW 2 G 4 1031.3 0.00
21 21:00 29 16 58 SSW 1 G 3 1031.9 0.00
21 20:00 30 16 56 WSW 2 G 5 1032.2 0.00
21 19:00 31 16 53 S 1 G 4 1032.2 0.00 36 31
21 18:00 32 15 48 SW 3 G 5 1032.7 0.00
21 17:00 34 15 45 SW 2 G 5 1033.1 0.00
21 16:00 36 16 44 WSW 3 G 5 1033.9 0.00
21 15:00 35 17 46 WSW 3 G 7 1034.5 0.00
21 14:00 33 17 51 WSW 2 G 7 1035.4 0.00
21 13:00 31 17 56 WSW 2 G 5 1036.4 0.00 31 14
21 12:00 29 14 55 SW 3 G 6 1037.5 0.00
21 11:00 26 12 55 SW 3 G 7 1037.7 0.00
21 10:00 23 14 68 SSW 2 G 5 1037.8 0.00
21 09:00 18 12 77 SW 0 G 3 1037.8 0.00
21 08:00 15 10 80 WSW 1 G 4 1037.5 0.00
21 07:00 14 10 81 WSW 0 G 2 1037.0 0.00 16 14
21 06:00 14 9 80 Calm 1036.7 0.00
21 05:00 14 9 80 Calm 1036.3 0.00
21 04:00 15 10 80 Calm 1036.2 0.00
21 03:00 15 9 79 Calm 1036.6 0.00
21 02:00 15 10 79 Calm 1036.7 0.00
21 01:00 16 10 78 Calm 1036.9 0.00 19 16
21 00:00 16 10 77 Calm 1037.0 0.00
20 23:00 17 11 77 Calm 1037.1 0.00
20 22:00 17 11 76 Calm 1037.0 0.00
20 21:00 17 11 76 Calm 1037.1 0.00
20 20:00 18 10 72 Calm 1037.0 0.00
20 19:00 19 11 70 Calm 1036.6 0.00 26 19
20 18:00 21 12 67 NNW 0 G 2 1035.8 0.00
20 17:00 22 12 64 NNE 1 G 5 1035.7 0.00
20 16:00 25 13 58 NE 1 G 5 1035.5 0.00
20 15:00 24 13 62 N 1 G 4 1035.4 0.00
20 14:00 26 15 63 WSW 1 G 6 1035.7 0.00
20 13:00 24 15 69 NNE 0 G 3 1035.9 0.00 25 23
20 12:00 24 16 72 ENE 1 G 4 1036.0 0.00
20 11:00 25 16 69 ENE 2 G 5 1036.1 0.00
20 10:00 24 15 69 NNW 0 G 1 1035.6 0.00
20 09:00 23 15 71 NNW 1 G 2 1035.3 0.00
20 08:00 23 16 74 Calm 1034.6 0.00
20 07:00 23 15 73 WNW 0 G 2 1034.1 0.00 23 22
20 06:00 23 15 72 WNW 0 G 3 1033.8 0.00
20 05:00 22 15 74 NE 0 G 2 1033.4 0.00
20 04:00 23 16 76 W 0 G 4 1033.0 0.00
20 03:00 23 17 77 Calm 1033.4 0.00
20 02:00 23 16 75 WSW 0 G 1 1033.3 0.00
20 01:00 23 15 72 Calm 1033.5 0.00 28 23
20 00:00 24 15 69 Calm 1033.6 0.00
19 23:00 24 15 69 Calm 1033.7 0.00
19 22:00 24 14 65 Calm 1033.4 0.00
19 21:00 25 15 67 Calm 1033.2 0.00
19 20:00 26 14 60 Calm 1033.3 0.00
19 19:00 28 15 57 WSW 0 G 1 1033.2 0.00 38 28
19 18:00 30 13 50 W 0 G 1 1032.8 0.00
19 17:00 32 13 45 SSE 0 G 6 1032.6 0.00
19 16:00 37 20 51 N 2 G 3 1032.5 0.00
19 15:00 37 20 51 NNE 0 G 4 1032.5 0.00
19 14:00 37 19 48 WSW 3 G 6 1032.2 0.00